Sturgeon Falls, Canada
Current Conditions -  °F | °C
As of 6:00 AM on Thursday 27 Nov 2014 (Local Time) from CYYB Reporting Station
Light Snow Light Snow  
Wind Chill:   Ceiling: 900
Heat Index: 16°   Visibility: 9mi
Dew Point: 14°   Wind: 7mph
Humidity: 93%   Direction: 20°NNE
Pressure: 30.05"   Gusts: NA
Location:  46.37°N, 79.93°W
Report Text: CYYB 271100Z AUTO 02006KT 350V070 9SM -SN OVC009 M09/M10 A3005 RMK SLP201
Loading
Personal Weather Stations






























Interactive Weather Map New forecast layout! Learn more

10-Day Weather Forecast

Advertisements
Track Severe Weather on mobile